Time;durP1;ratioP1;P1;durP2;ratioP2;P2;SDS_P1;SDS_P2;PMS_P1;PMS_P2;Temp;Humidity;BMP_temperature;BMP_pressure;BME280_temperature;BME280_humidity;BME280_pressure;Samples;Min_cycle;Max_cycle;Signal;HPM_P1;HPM_P2
2021/03/01 00:00:38;;;;;;;11.93;5.25;;;;;;;1.56;83.30;101153.48;1744119;81;21497;-48
2021/03/01 00:03:07;;;;;;;10.03;5.25;;;;;;;1.60;83.10;101155.53;1761368;78;21323;-47
2021/03/01 00:05:45;;;;;;;8.23;4.37;;;;;;;1.64;83.15;101154.53;1759770;78;21253;31
2021/03/01 00:08:14;;;;;;;8.45;4.35;;;;;;;1.69;82.94;101155.23;1748760;81;21598;-48
2021/03/01 00:14:01;;;;;;;6.35;3.85;;;;;;;1.77;82.66;101150.62;1756026;76;21321;-47
2021/03/01 00:16:29;;;;;;;7.65;3.55;;;;;;;1.81;82.39;101146.61;1666456;84;21555;-48
2021/03/01 00:18:56;;;;;;;7.62;3.60;;;;;;;1.84;82.27;101149.98;1666561;84;21175;-48
2021/03/01 00:21:24;;;;;;;7.85;4.12;;;;;;;1.80;81.60;101159.25;1666664;85;21527;-48
2021/03/01 00:23:52;;;;;;;7.15;3.20;;;;;;;1.66;81.37;101161.02;1666554;84;21134;-48
2021/03/01 00:26:44;;;;;;;6.62;3.27;;;;;;;1.50;81.51;101165.89;1699036;77;21261;31
2021/03/01 00:29:12;;;;;;;5.78;2.90;;;;;;;1.36;81.83;101171.52;1776804;76;21473;-48
2021/03/01 00:34:59;;;;;;;5.03;2.92;;;;;;;1.35;83.16;101172.42;1780399;79;21146;-48
2021/03/01 00:37:27;;;;;;;5.17;3.17;;;;;;;1.45;83.41;101166.02;1767477;79;21515;-48
2021/03/01 00:39:55;;;;;;;7.80;3.85;;;;;;;1.55;83.51;101162.22;1786583;76;21417;-47
2021/03/01 00:42:23;;;;;;;7.67;3.67;;;;;;;1.66;83.54;101167.55;1769503;80;21715;-48
2021/03/01 00:44:51;;;;;;;5.83;3.33;;;;;;;1.72;83.10;101172.57;1782745;77;21248;-47
2021/03/01 00:50:15;;;;;;;5.75;2.85;;;;;;;1.80;82.49;101182.31;1735245;77;21607;-47
2021/03/01 00:52:43;;;;;;;7.45;3.10;;;;;;;1.85;82.33;101196.51;1754522;77;21161;-48
2021/03/01 00:55:16;;;;;;;4.95;3.10;;;;;;;1.89;82.17;101207.25;1740092;80;21807;-48
2021/03/01 00:57:45;;;;;;;9.90;3.08;;;;;;;1.89;82.09;101215.95;1742236;82;21126;-48
2021/03/01 01:00:17;;;;;;;8.13;3.72;;;;;;;1.89;81.96;101221.61;1750762;80;21492;-48
2021/03/01 01:02:47;;;;;;;5.95;2.98;;;;;;;1.87;81.78;101229.52;1755706;80;21133;-48
2021/03/01 01:05:27;;;;;;;5.12;2.77;;;;;;;1.87;81.36;101241.70;1881621;75;22755;-48
2021/03/01 01:07:55;;;;;;;5.33;2.90;;;;;;;1.69;81.05;101244.45;1818072;78;21879;-48
2021/03/01 01:10:23;;;;;;;7.35;3.90;;;;;;;1.54;81.18;101244.48;1820919;78;21658;-48
2021/03/01 01:12:51;;;;;;;8.10;4.45;;;;;;;1.39;81.53;101250.56;1822272;78;20994;-48
2021/03/01 01:21:46;;;;;;;8.28;3.83;;;;;;;1.33;83.17;101272.45;1729781;82;20979;-48
2021/03/01 01:24:14;;;;;;;6.20;3.37;;;;;;;1.40;83.26;101280.09;1759661;78;21274;-46
2021/03/01 01:26:49;;;;;;;6.15;2.92;;;;;;;1.45;83.17;101283.43;1786436;78;21138;31
2021/03/01 01:38:17;;;;;;;7.35;4.25;;;;;;;1.57;82.85;101285.67;1775291;78;22004;-46
2021/03/01 01:40:45;;;;;;;6.65;4.33;;;;;;;1.61;82.50;101284.69;1761962;79;21146;-47
2021/03/01 01:43:42;;;;;;;6.00;3.75;;;;;;;1.61;82.23;101285.98;1753937;79;21663;-47
2021/03/01 01:46:21;;;;;;;5.00;3.12;;;;;;;1.60;82.15;101294.72;1791352;78;21093;31
2021/03/01 01:51:45;;;;;;;4.30;2.25;;;;;;;1.62;81.65;101289.00;1730915;82;21179;-48
2021/03/01 01:54:14;;;;;;;2.40;1.70;;;;;;;1.45;81.45;101283.43;1730504;82;21153;-48
2021/03/01 01:56:45;;;;;;;3.08;2.00;;;;;;;1.33;81.72;101282.89;1730502;82;26956;-47
2021/03/01 02:11:47;;;;;;;8.85;3.80;;;;;;;1.53;83.26;101291.89;1823517;78;21549;-47
2021/03/01 02:29:21;;;;;;;2.92;1.70;;;;;;;1.75;81.80;101335.63;1822572;78;20983;-47
2021/03/01 02:41:17;;;;;;;3.40;1.72;;;;;;;1.45;81.18;101352.58;1790324;77;20959;-48
2021/03/01 02:43:46;;;;;;;3.72;2.08;;;;;;;1.27;81.53;101353.48;1798781;78;21449;-47
2021/03/01 02:46:24;;;;;;;3.12;2.02;;;;;;;1.18;81.92;101346.79;1742132;78;21105;-47
2021/03/01 02:48:52;;;;;;;3.17;2.20;;;;;;;1.23;82.78;101357.55;1829245;76;21723;-48
2021/03/01 02:54:38;;;;;;;4.08;2.40;;;;;;;1.38;83.27;101361.03;1803142;78;20990;-48
2021/03/01 02:57:07;;;;;;;3.08;2.10;;;;;;;1.44;83.04;101371.30;1792404;79;21459;-48
2021/03/01 02:59:54;;;;;;;3.58;2.00;;;;;;;1.45;82.87;101378.23;1774028;77;21072;31
2021/03/01 03:08:20;;;;;;;5.28;1.72;;;;;;;1.52;82.46;101393.72;1805202;76;21490;-47
2021/03/01 03:13:51;;;;;;;4.85;2.90;;;;;;;1.59;82.69;101406.53;1828352;77;20998;-48
2021/03/01 03:16:25;;;;;;;5.60;2.15;;;;;;;1.60;82.57;101400.85;1816770;76;21345;31
2021/03/01 03:18:54;;;;;;;2.87;2.08;;;;;;;1.62;82.38;101413.41;1772299;78;21528;-48
2021/03/01 03:24:39;;;;;;;3.58;1.80;;;;;;;1.53;81.44;101413.23;1781812;77;21305;-47
2021/03/01 03:27:07;;;;;;;3.30;2.30;;;;;;;1.37;81.60;101415.41;1761248;78;21273;-47
2021/03/01 03:29:35;;;;;;;4.40;2.50;;;;;;;1.23;81.92;101414.46;1817305;78;21373;-48
2021/03/01 03:32:03;;;;;;;4.40;2.17;;;;;;;1.20;82.68;101411.94;1771811;78;21201;-48
2021/03/01 03:34:30;;;;;;;5.37;2.45;;;;;;;1.26;83.02;101412.23;1750026;80;21747;-47
2021/03/01 03:37:20;;;;;;;3.27;2.30;;;;;;;1.35;82.99;101411.12;1768308;79;21152;31
2021/03/01 03:42:50;;;;;;;6.30;2.60;;;;;;;1.56;83.04;101413.14;1800923;78;21391;-47
2021/03/01 03:54:36;;;;;;;3.65;2.20;;;;;;;1.93;81.98;101427.36;1738027;80;21610;-47
2021/03/01 03:57:05;;;;;;;4.05;2.17;;;;;;;1.97;81.58;101425.06;1777073;78;21390;-46
2021/03/01 03:59:33;;;;;;;4.10;2.40;;;;;;;1.99;81.09;101424.11;1768382;79;21003;-48
2021/03/01 04:02:01;;;;;;;3.95;2.35;;;;;;;2.00;80.72;101428.89;1799119;78;21507;-48
2021/03/01 04:04:29;;;;;;;3.98;2.62;;;;;;;2.00;80.79;101434.11;1796267;78;21499;-48
2021/03/01 04:07:21;;;;;;;2.98;1.90;;;;;;;1.93;80.25;101436.50;1781137;78;21235;31
2021/03/01 04:15:50;;;;;;;4.37;2.95;;;;;;;1.38;80.78;101438.43;1783554;78;21121;-48
2021/03/01 04:18:26;;;;;;;6.47;3.35;;;;;;;1.36;81.58;101446.75;1797016;78;21026;-48
2021/03/01 04:21:03;;;;;;;5.08;3.27;;;;;;;1.45;81.94;101449.11;1788724;77;22847;-47
2021/03/01 04:23:31;;;;;;;5.13;3.50;;;;;;;1.49;82.22;101456.42;1783101;76;20991;-48
2021/03/01 04:25:59;;;;;;;5.35;3.40;;;;;;;1.55;82.11;101454.49;1788724;77;21989;-48
2021/03/01 04:28:27;;;;;;;6.25;3.30;;;;;;;1.59;82.03;101452.67;1775522;78;21009;-48
2021/03/01 04:30:55;;;;;;;6.65;3.60;;;;;;;1.64;82.07;101452.06;1776795;75;20981;-48
2021/03/01 04:36:40;;;;;;;7.17;3.80;;;;;;;1.74;81.54;101452.22;1801761;75;21269;-47
2021/03/01 04:39:07;;;;;;;7.80;4.35;;;;;;;1.75;81.10;101460.92;1767873;80;21211;-47
2021/03/01 04:41:51;;;;;;;5.92;3.47;;;;;;;1.75;81.02;101462.23;1844432;75;21594;31
2021/03/01 04:47:19;;;;;;;5.80;3.95;;;;;;;1.84;81.43;101475.03;1776929;75;21138;-47
2021/03/01 04:49:47;;;;;;;5.50;3.90;;;;;;;1.86;81.05;101492.81;1702009;82;21126;-48
2021/03/01 04:52:22;;;;;;;5.67;3.40;;;;;;;1.76;80.57;101490.89;1766587;75;21602;31
2021/03/01 04:54:50;;;;;;;4.92;3.17;;;;;;;1.64;80.56;101500.81;1733563;79;21185;-47
2021/03/01 04:57:19;;;;;;;5.33;4.28;;;;;;;1.47;80.80;101506.90;1766874;78;21588;-47
2021/03/01 05:00:22;;;;;;;6.15;4.12;;;;;;;1.36;81.22;101508.05;1764786;78;21006;-48
2021/03/01 05:02:50;;;;;;;6.03;4.25;;;;;;;1.35;82.30;101518.08;1721583;81;21472;-48
2021/03/01 05:05:17;;;;;;;6.90;5.20;;;;;;;1.41;82.79;101517.92;1807589;75;21221;-47
2021/03/01 05:07:46;;;;;;;6.90;5.30;;;;;;;1.47;82.89;101512.13;1853210;75;21105;-48
2021/03/01 05:10:24;;;;;;;7.55;5.55;;;;;;;1.53;82.74;101515.47;1784046;77;21011;-47
2021/03/01 05:15:49;;;;;;;9.33;7.33;;;;;;;1.62;82.37;101529.12;1811677;75;21100;-47
2021/03/01 05:21:21;;;;;;;10.90;7.78;;;;;;;1.67;82.67;101533.36;1751291;78;21182;-48
2021/03/01 05:23:52;;;;;;;8.85;6.72;;;;;;;1.68;82.53;101535.08;1742830;79;21058;31
2021/03/01 05:26:20;;;;;;;7.47;5.87;;;;;;;1.65;82.24;101547.74;1774095;76;21197;-47
2021/03/01 05:28:59;;;;;;;;;;;;;;;;;;;;;
2021/03/01 05:31:52;;;;;;;7.53;6.08;;;;;;;1.65;82.11;101556.88;1812228;75;21002;-48
2021/03/01 05:34:20;;;;;;;8.83;5.87;;;;;;;1.62;82.08;101560.44;1764734;79;21139;-48
2021/03/01 05:36:48;;;;;;;6.58;5.00;;;;;;;1.54;82.02;101566.30;1761659;81;21600;-46
2021/03/01 05:39:16;;;;;;;7.75;5.25;;;;;;;1.43;82.10;101567.89;1799433;74;21173;-47
2021/03/01 05:41:46;;;;;;;8.73;5.22;;;;;;;1.30;82.47;101580.81;1755639;80;21134;-48
2021/03/01 05:44:15;;;;;;;9.48;5.30;;;;;;;1.23;82.95;101590.52;1827361;73;21251;-48
2021/03/01 05:46:44;;;;;;;6.15;4.75;;;;;;;1.25;83.42;101593.95;1842202;73;21241;-48
2021/03/01 05:49:12;;;;;;;11.75;6.60;;;;;;;1.29;83.72;101600.81;1826938;77;21545;-48
2021/03/01 05:54:47;;;;;;;6.85;4.50;;;;;;;1.41;83.93;101619.68;1803757;75;21511;-47
2021/03/01 05:57:17;;;;;;;7.78;5.50;;;;;;;1.45;83.88;101619.59;1754279;81;21499;-47
2021/03/01 06:00:15;;;;;;;6.08;4.37;;;;;;;1.46;83.91;101625.65;1753278;79;21597;-48
2021/03/01 06:02:50;;;;;;;6.10;4.10;;;;;;;1.46;83.61;101637.39;1834985;75;21141;31
2021/03/01 06:05:19;;;;;;;7.00;4.65;;;;;;;1.44;83.41;101636.14;1799600;78;21105;-48
2021/03/01 06:07:47;;;;;;;7.05;4.80;;;;;;;1.43;83.48;101637.47;1817417;75;21161;-48
2021/03/01 06:10:44;;;;;;;4.83;3.70;;;;;;;1.45;83.50;101644.81;1732436;80;21347;-47
2021/03/01 06:13:12;;;;;;;5.53;3.75;;;;;;;1.45;83.59;101651.33;1745966;81;21026;-48
2021/03/01 06:15:40;;;;;;;4.67;3.00;;;;;;;1.44;83.57;101653.09;1770230;76;21313;-48
2021/03/01 06:18:10;;;;;;;4.80;3.37;;;;;;;1.42;83.50;101652.28;1779461;76;21264;-47
2021/03/01 06:20:41;;;;;;;5.78;3.95;;;;;;;1.36;83.24;101656.33;1777170;77;21930;-48
2021/03/01 06:23:10;;;;;;;5.53;4.33;;;;;;;1.27;83.35;101657.84;1807218;75;26882;-48
2021/03/01 06:25:38;;;;;;;5.83;3.90;;;;;;;1.17;83.61;101655.87;1752613;80;21111;-48
2021/03/01 06:28:28;;;;;;;9.23;6.33;;;;;;;1.12;84.18;101665.12;1773573;76;21075;31
2021/03/01 06:30:56;;;;;;;5.45;4.42;;;;;;;1.16;84.74;101668.06;1782695;76;20963;-47
2021/03/01 06:37:12;;;;;;;5.45;4.12;;;;;;;1.28;84.87;101681.27;1810502;77;21019;-47
2021/03/01 06:45:52;;;;;;;10.70;5.70;;;;;;;1.43;84.61;101685.73;1784566;79;21433;-47
2021/03/01 06:48:27;;;;;;;;;;;;;;;1.47;84.58;101694.78;1788229;76;20947;-47
2021/03/01 06:50:55;;;;;;;7.28;4.40;;;;;;;1.47;84.41;101698.70;1837434;74;21173;-46
2021/03/01 06:53:23;;;;;;;7.90;4.92;;;;;;;1.45;84.27;101703.09;1806783;77;21001;-47
2021/03/01 07:05:22;;;;;;;6.50;4.45;;;;;;;1.57;83.93;101718.06;1742781;80;21380;-48
2021/03/01 07:07:50;;;;;;;7.80;4.95;;;;;;;1.45;83.77;101719.17;1778459;80;21002;-47
2021/03/01 07:10:18;;;;;;;6.05;4.35;;;;;;;1.38;84.10;101718.90;1743717;81;21129;-48
2021/03/01 07:12:49;;;;;;;6.60;4.15;;;;;;;1.37;84.23;101724.58;1778301;80;20993;-47
2021/03/01 07:15:17;;;;;;;7.12;4.40;;;;;;;1.41;84.47;101717.09;1758808;80;20991;-48
2021/03/01 07:17:47;;;;;;;6.58;5.05;;;;;;;1.47;84.74;101723.48;1763555;77;22379;-47
2021/03/01 07:20:45;;;;;;;7.45;4.95;;;;;;;1.54;84.75;101724.19;1743104;81;21166;-46
2021/03/01 07:23:13;;;;;;;8.28;5.28;;;;;;;1.59;84.66;101726.25;1757770;77;21426;-47
2021/03/01 07:31:55;;;;;;;9.85;6.83;;;;;;;1.81;84.37;101736.20;1782019;78;21591;-47
2021/03/01 07:37:40;;;;;;;9.53;6.55;;;;;;;1.98;84.01;101742.31;1776422;77;21460;-47
2021/03/01 07:40:08;;;;;;;7.53;5.05;;;;;;;2.10;84.00;101746.83;1751838;75;21102;-47
2021/03/01 07:42:38;;;;;;;9.38;5.42;;;;;;;2.16;83.53;101750.12;1766664;77;21131;-47
2021/03/01 07:51:40;;;;;;;10.13;6.28;;;;;;;1.95;82.23;101748.07;1758584;77;21114;-47
2021/03/01 07:54:09;;;;;;;9.35;6.30;;;;;;;1.81;82.61;101753.59;1766468;79;21122;-47
2021/03/01 07:56:46;;;;;;;10.85;6.53;;;;;;;1.69;83.01;101753.45;1681346;83;21500;-47
2021/03/01 07:59:28;;;;;;;9.03;5.60;;;;;;;1.67;83.55;101754.77;1754270;79;21169;-47
2021/03/01 08:02:21;;;;;;;7.78;5.35;;;;;;;1.72;83.67;101765.13;1751421;75;21225;31
2021/03/01 08:04:50;;;;;;;7.08;4.62;;;;;;;1.76;83.65;101765.47;1715215;80;21148;-47
2021/03/01 08:13:29;;;;;;;11.48;6.37;;;;;;;1.82;83.53;101777.08;1790653;76;20999;-46
2021/03/01 08:16:19;;;;;;;9.35;6.28;;;;;;;1.82;83.46;101777.08;1774603;79;21425;-46
2021/03/01 08:18:53;;;;;;;8.08;5.75;;;;;;;1.82;83.42;101787.52;1755935;80;21134;-46
2021/03/01 08:21:22;;;;;;;8.63;5.50;;;;;;;1.88;83.49;101786.51;1792953;79;21575;-46
2021/03/01 08:23:50;;;;;;;11.60;6.80;;;;;;;1.94;83.49;101786.83;1792934;79;21130;-49
2021/03/01 08:26:31;;;;;;;15.18;9.70;;;;;;;1.96;83.49;101793.72;1816234;75;21226;31
2021/03/01 08:29:21;;;;;;;20.08;10.53;;;;;;;2.02;83.64;101794.88;1762622;75;21092;31
2021/03/01 08:34:50;;;;;;;16.57;8.90;;;;;;;2.09;83.08;101791.70;1714527;83;21166;-47
2021/03/01 08:37:18;;;;;;;26.35;14.43;;;;;;;2.07;82.88;101793.48;1751330;77;21466;-46
2021/03/01 08:43:31;;;;;;;11.10;7.15;;;;;;;2.05;83.23;101796.58;1763603;78;21013;-47
2021/03/01 08:45:59;;;;;;;11.80;6.80;;;;;;;2.12;83.94;101800.73;1750683;76;21062;-46
2021/03/01 08:48:27;;;;;;;12.35;7.10;;;;;;;2.25;83.90;101803.05;1760003;80;21145;-47
2021/03/01 09:03:32;;;;;;;7.72;5.10;;;;;;;2.74;82.38;101816.20;1783207;78;21511;-47
2021/03/01 09:06:15;;;;;;;9.55;5.83;;;;;;;2.82;81.95;101824.30;1840726;74;21392;-47
2021/03/01 09:08:48;;;;;;;8.63;5.42;;;;;;;2.86;81.65;101824.62;1885522;74;21347;-47
2021/03/01 09:17:57;;;;;;;8.53;5.85;;;;;;;3.03;81.30;101835.50;1862530;74;21277;-46
2021/03/01 09:23:50;;;;;;;11.88;7.42;;;;;;;3.03;80.53;101839.42;1787028;74;20976;-47
2021/03/01 09:29:23;;;;;;;7.72;5.60;;;;;;;2.88;80.82;101856.36;1750031;80;20991;-47
2021/03/01 09:34:51;;;;;;;13.60;9.50;;;;;;;3.02;81.16;101853.84;1863228;75;23631;31
2021/03/01 09:37:24;;;;;;;12.98;9.03;;;;;;;3.04;81.38;101859.45;1738114;81;21193;-47
2021/03/01 09:39:52;;;;;;;14.83;9.90;;;;;;;3.14;81.29;101866.59;1747289;81;21377;-48
2021/03/01 09:42:20;;;;;;;19.73;12.43;;;;;;;3.20;81.02;101865.55;1736289;80;21154;-45
2021/03/01 09:47:50;;;;;;;12.78;7.97;;;;;;;3.34;80.92;101863.41;1706123;82;21587;-47
2021/03/01 09:50:21;;;;;;;13.08;9.05;;;;;;;3.44;80.62;101866.66;1720058;79;21028;-47
2021/03/01 09:52:52;;;;;;;11.73;8.80;;;;;;;3.52;80.53;101863.36;1739689;78;21130;31
2021/03/01 09:58:33;;;;;;;18.40;11.65;;;;;;;3.61;79.81;101860.92;1654327;85;21451;-47
2021/03/01 10:01:19;;;;;;;13.58;9.00;;;;;;;3.59;79.42;101857.48;1654140;85;21015;-47
2021/03/01 10:03:50;;;;;;;8.53;6.08;;;;;;;3.57;79.27;101859.76;1738656;76;21343;-47
2021/03/01 10:06:35;;;;;;;11.73;6.78;;;;;;;3.59;79.21;101863.19;1782828;76;21213;31
2021/03/01 10:09:20;;;;;;;8.83;6.28;;;;;;;3.59;78.81;101865.34;1716748;77;21153;31
2021/03/01 10:11:50;;;;;;;7.70;5.00;;;;;;;3.51;78.64;101857.72;1745385;77;21140;-47
2021/03/01 10:14:18;;;;;;;14.03;9.00;;;;;;;3.49;78.88;101859.95;1749469;78;21781;-48
2021/03/01 10:20:22;;;;;;;12.20;6.65;;;;;;;3.42;79.22;101851.44;1758924;78;20992;-47
2021/03/01 10:23:05;;;;;;;8.13;5.90;;;;;;;3.48;79.22;101854.31;1733557;80;21011;-48
2021/03/01 10:25:38;;;;;;;9.85;7.20;;;;;;;3.54;79.17;101848.91;1766727;80;21519;-47
2021/03/01 10:28:26;;;;;;;9.25;5.85;;;;;;;3.66;79.32;101847.23;1762515;81;21132;-47
2021/03/01 10:31:11;;;;;;;8.95;5.80;;;;;;;3.79;79.52;101841.64;1762603;80;21103;-47
2021/03/01 10:33:55;;;;;;;10.08;6.25;;;;;;;3.95;79.36;101845.95;1746836;80;21390;-47
2021/03/01 10:36:26;;;;;;;7.53;5.90;;;;;;;4.04;79.12;101848.75;1807756;78;21114;-46
2021/03/01 10:41:54;;;;;;;8.10;5.95;;;;;;;4.09;78.32;101852.93;1755956;81;21458;-46
2021/03/01 10:47:40;;;;;;;5.95;4.20;;;;;;;4.06;77.45;101856.12;1778387;78;21846;-46
2021/03/01 10:50:19;;;;;;;8.53;5.45;;;;;;;4.01;77.53;101861.95;1764115;77;21074;-47
2021/03/01 10:52:48;;;;;;;8.33;5.37;;;;;;;3.96;77.47;101864.26;1820117;76;20970;-47
2021/03/01 10:58:17;;;;;;;8.93;6.37;;;;;;;3.77;76.99;101864.41;1694584;83;20986;-47
2021/03/01 11:00:47;;;;;;;8.43;5.65;;;;;;;3.62;77.04;101871.80;1756993;76;21865;-47
2021/03/01 11:03:46;;;;;;;7.35;5.00;;;;;;;3.52;77.08;101867.73;1826616;75;21794;-47
2021/03/01 11:06:24;;;;;;;8.68;5.80;;;;;;;3.37;77.30;101867.25;1776528;77;21119;-47
2021/03/01 11:08:51;;;;;;;9.98;6.78;;;;;;;3.25;77.87;101867.59;1748612;79;21052;-47
2021/03/01 11:11:20;;;;;;;9.60;6.35;;;;;;;3.21;78.58;101866.84;1792399;78;20992;-47
2021/03/01 11:13:51;;;;;;;9.38;5.95;;;;;;;3.24;79.04;101867.19;1808966;75;21257;31
2021/03/01 11:16:20;;;;;;;10.18;6.60;;;;;;;3.31;79.34;101866.12;1758348;77;21012;-47
2021/03/01 11:22:06;;;;;;;10.93;6.90;;;;;;;3.42;79.04;101861.91;1799105;75;20960;-46
2021/03/01 11:24:34;;;;;;;10.90;6.15;;;;;;;3.44;78.85;101864.47;1791376;77;21367;-45
2021/03/01 11:27:21;;;;;;;7.75;5.28;;;;;;;3.40;78.72;101864.55;1713967;77;22122;31
2021/03/01 11:29:53;;;;;;;8.40;6.03;;;;;;;3.40;78.90;101867.64;1742599;82;21978;-48
2021/03/01 11:38:50;;;;;;;9.18;6.15;;;;;;;3.50;78.99;101872.15;1688125;83;21006;-48
2021/03/01 11:41:18;;;;;;;8.88;6.20;;;;;;;3.53;78.92;101862.47;1761493;76;21252;-46
2021/03/01 11:47:45;;;;;;;9.65;5.47;;;;;;;3.60;78.90;101868.37;1774016;76;21005;-47
2021/03/01 11:50:13;;;;;;;10.25;6.15;;;;;;;3.65;78.85;101865.63;1775505;75;21227;-47
2021/03/01 11:52:50;;;;;;;8.40;6.15;;;;;;;3.69;78.71;101858.94;1771568;76;21113;31
2021/03/01 11:58:20;;;;;;;7.72;5.35;;;;;;;3.66;78.07;101866.88;1801699;74;20920;-48
2021/03/01 12:13:17;;;;;;;7.83;5.05;;;;;;;3.64;78.44;101871.30;1722197;82;20282;-46
2021/03/01 12:31:38;;;;;;;7.40;4.58;;;;;;;3.65;78.17;101877.42;1788992;75;21145;31
2021/03/01 12:34:20;;;;;;;8.35;5.22;;;;;;;3.70;77.98;101872.91;1812539;77;21289;31
2021/03/01 12:36:50;;;;;;;8.80;5.40;;;;;;;3.71;77.90;101876.37;1772320;80;21127;-48
2021/03/01 12:42:36;;;;;;;6.10;4.22;;;;;;;3.68;77.37;101878.17;1789075;77;20980;-48
2021/03/01 12:45:06;;;;;;;6.25;4.30;;;;;;;3.67;77.37;101880.38;1811788;77;21612;-48
2021/03/01 12:47:34;;;;;;;7.12;4.58;;;;;;;3.69;77.47;101881.20;1800799;76;21011;-48
2021/03/01 12:56:18;;;;;;;6.75;4.80;;;;;;;3.54;77.14;101886.44;1777687;76;21108;-47
2021/03/01 13:04:50;;;;;;;6.62;4.58;;;;;;;3.51;77.38;101893.07;1690021;82;21590;-46
2021/03/01 13:07:18;;;;;;;6.47;4.37;;;;;;;3.43;77.34;101892.86;1765511;76;21523;-48
2021/03/01 13:10:14;;;;;;;7.15;4.30;;;;;;;3.37;77.31;101896.05;1743666;80;21166;-47
2021/03/01 13:12:42;;;;;;;6.22;4.53;;;;;;;3.28;77.38;101900.23;1791893;76;21157;-48
2021/03/01 13:21:19;;;;;;;9.10;5.67;;;;;;;3.08;77.95;101904.27;1749762;80;21263;-47
2021/03/01 13:23:47;;;;;;;7.78;5.62;;;;;;;3.05;78.30;101905.65;1775595;76;21493;-46
2021/03/01 13:26:44;;;;;;;8.15;5.62;;;;;;;3.05;78.50;101899.54;1763199;76;21176;-47
2021/03/01 13:29:12;;;;;;;8.95;5.83;;;;;;;3.03;78.42;101906.56;1801511;79;21105;-48
2021/03/01 13:31:40;;;;;;;10.30;6.12;;;;;;;2.99;78.51;101904.93;1772506;77;21533;-48
2021/03/01 13:34:08;;;;;;;15.03;8.63;;;;;;;2.97;78.60;101908.03;1790523;76;22167;-46
2021/03/01 13:36:50;;;;;;;14.93;8.10;;;;;;;2.94;78.74;101902.45;1807342;76;21129;31
2021/03/01 13:39:22;;;;;;;15.95;8.73;;;;;;;2.91;78.80;101905.14;1712454;81;21000;-49
2021/03/01 13:41:50;;;;;;;9.55;6.25;;;;;;;2.86;78.95;101899.16;1765366;76;21031;-48
2021/03/01 13:44:21;;;;;;;12.30;7.78;;;;;;;2.83;79.14;101899.24;1758447;79;21340;-48
2021/03/01 13:49:49;;;;;;;14.80;8.63;;;;;;;2.76;79.24;101899.83;1794016;78;21522;-46
2021/03/01 13:52:17;;;;;;;14.05;9.20;;;;;;;2.72;79.13;101891.22;1824728;76;20957;-46
2021/03/01 13:55:09;;;;;;;13.70;8.48;;;;;;;2.72;79.16;101903.41;1735045;78;21138;-47
2021/03/01 13:57:38;;;;;;;10.48;7.28;;;;;;;2.65;79.16;101895.72;1769344;79;21496;-47
2021/03/01 14:06:16;;;;;;;8.33;5.22;;;;;;;2.51;79.54;101887.37;1671864;83;21676;-48
2021/03/01 14:08:47;;;;;;;7.33;5.27;;;;;;;2.47;79.64;101879.20;1686640;83;21163;-48
2021/03/01 14:11:16;;;;;;;10.93;6.92;;;;;;;2.47;79.77;101875.28;1684529;83;21854;-47
2021/03/01 14:28:50;;;;;;;16.85;9.45;;;;;;;2.66;79.66;101874.37;1711828;82;21149;-47
2021/03/01 14:31:29;;;;;;;;;;;;;;;;;;;;;
2021/03/01 14:37:24;;;;;;;13.85;8.48;;;;;;;2.67;80.11;101878.70;1793870;75;21170;-47
2021/03/01 14:39:52;;;;;;;19.85;10.40;;;;;;;2.71;79.64;101880.34;1863334;76;21076;-48
2021/03/01 14:42:20;;;;;;;18.90;9.53;;;;;;;2.68;79.33;101868.66;1795069;78;21375;-47
2021/03/01 14:47:51;;;;;;;15.50;9.08;;;;;;;2.61;79.26;101878.42;1768014;77;21174;-46
2021/03/01 14:50:20;;;;;;;14.98;9.53;;;;;;;2.61;79.56;101882.77;1807788;77;21138;-46
2021/03/01 14:58:50;;;;;;;31.35;15.88;;;;;;;2.55;79.84;101892.07;1657712;85;21900;-48
2021/03/01 15:01:18;;;;;;;25.02;13.58;;;;;;;2.53;79.90;101897.78;1633891;85;21154;-47
2021/03/01 15:03:51;;;;;;;21.02;12.75;;;;;;;2.58;80.23;101898.53;1696933;77;21220;31
2021/03/01 15:12:17;;;;;;;19.77;11.03;;;;;;;2.64;79.48;101903.62;1663643;84;21830;-47
2021/03/01 15:14:50;;;;;;;25.65;13.60;;;;;;;2.59;79.40;101913.33;1798469;76;21432;-47
2021/03/01 15:17:21;;;;;;;35.80;21.27;;;;;;;2.54;79.51;101907.34;1827772;76;21232;31
2021/03/01 15:19:50;;;;;;;22.93;12.68;;;;;;;2.50;79.62;101923.10;1780120;77;21017;-46
2021/03/01 15:28:25;;;;;;;8.78;5.85;;;;;;;2.53;79.77;101931.77;1759858;77;21002;-46
2021/03/01 15:30:54;;;;;;;9.18;5.60;;;;;;;2.46;79.91;101929.30;1823464;76;20961;-46
2021/03/01 15:33:22;;;;;;;7.67;5.15;;;;;;;2.41;80.07;101933.77;1826049;74;21004;-46
2021/03/01 15:35:52;;;;;;;10.43;5.28;;;;;;;2.39;80.41;101940.78;1821395;76;21420;-46
2021/03/01 15:38:20;;;;;;;7.78;5.00;;;;;;;2.43;80.58;101934.59;1812636;76;21094;-46
2021/03/01 15:46:50;;;;;;;27.40;11.12;;;;;;;2.28;80.13;101940.16;1706900;81;21501;-46
2021/03/01 15:49:19;;;;;;;29.27;14.30;;;;;;;2.20;80.48;101943.80;1753157;80;21449;-47
2021/03/01 15:51:47;;;;;;;61.95;30.88;;;;;;;2.16;80.74;101943.45;1752382;80;21150;-48
2021/03/01 15:54:16;;;;;;;98.87;54.98;;;;;;;2.21;81.21;101938.98;1803634;76;21094;-47
2021/03/01 15:56:46;;;;;;;142.55;72.85;;;;;;;2.31;81.22;101936.17;1812905;77;21477;-47
2021/03/01 15:59:16;;;;;;;157.20;73.67;;;;;;;2.32;80.74;101937.89;1860002;76;21117;-47
2021/03/01 16:01:47;;;;;;;85.83;41.60;;;;;;;2.26;80.56;101935.41;1847158;76;22274;-47
2021/03/01 16:04:16;;;;;;;20.72;10.90;;;;;;;2.18;80.70;101939.05;1859380;76;21083;-46
2021/03/01 16:06:54;;;;;;;11.12;6.35;;;;;;;2.13;80.80;101930.92;1792829;76;21303;-45
2021/03/01 16:12:22;;;;;;;14.03;6.80;;;;;;;2.05;81.23;101931.95;1734914;81;21120;-47
2021/03/01 16:14:52;;;;;;;10.78;5.78;;;;;;;2.07;81.36;101926.70;1729403;81;21901;-47
2021/03/01 16:17:21;;;;;;;9.93;5.85;;;;;;;2.02;81.27;101929.86;1726644;82;21147;-47
2021/03/01 16:25:50;;;;;;;10.35;6.17;;;;;;;1.93;81.36;101940.50;1769473;76;21091;-47
2021/03/01 16:28:23;;;;;;;14.53;7.78;;;;;;;1.99;81.70;101947.75;1770157;80;21333;-46
2021/03/01 16:30:52;;;;;;;12.30;7.67;;;;;;;2.06;81.91;101948.03;1745006;78;21243;31
2021/03/01 16:33:20;;;;;;;12.45;7.05;;;;;;;2.09;81.46;101948.42;1802701;77;21498;-46
2021/03/01 16:35:50;;;;;;;19.40;10.55;;;;;;;2.04;81.30;101961.56;1817738;77;21084;-46
2021/03/01 16:38:17;;;;;;;17.30;9.58;;;;;;;1.98;81.26;101955.16;1820402;77;21097;-47
2021/03/01 16:40:47;;;;;;;12.58;8.00;;;;;;;1.95;81.35;101960.45;1811614;77;21361;-47
2021/03/01 16:43:17;;;;;;;17.02;9.68;;;;;;;1.93;81.46;101962.23;1784597;78;21393;-47
2021/03/01 16:45:51;;;;;;;18.00;10.88;;;;;;;1.96;81.91;101964.78;1799461;75;21070;31
2021/03/01 16:51:19;;;;;;;19.37;12.00;;;;;;;1.97;81.66;101965.20;1793293;76;21102;-46
2021/03/01 16:53:47;;;;;;;25.65;13.38;;;;;;;1.94;81.56;101969.64;1840497;77;21208;-46
2021/03/01 16:56:44;;;;;;;28.10;15.63;;;;;;;1.87;81.48;101976.29;1815071;76;21143;-47
2021/03/01 16:59:14;;;;;;;25.45;15.03;;;;;;;1.84;81.70;101975.05;1806743;77;20959;-48
2021/03/01 17:01:43;;;;;;;23.07;14.58;;;;;;;1.92;81.99;101970.95;1843599;77;21145;-47
2021/03/01 17:04:13;;;;;;;23.38;13.15;;;;;;;2.01;82.07;101977.77;1794206;77;21346;-47
2021/03/01 17:06:43;;;;;;;24.77;13.88;;;;;;;2.04;81.82;101975.09;1787923;77;21547;-47
2021/03/01 17:09:30;;;;;;;26.57;13.85;;;;;;;2.00;81.60;101970.82;1780683;78;21158;-47
2021/03/01 17:15:16;;;;;;;37.60;17.52;;;;;;;1.93;81.66;101968.77;1770219;77;21124;-46
2021/03/01 17:17:43;;;;;;;33.05;18.73;;;;;;;2.01;81.79;101968.63;1778158;78;21097;-46
2021/03/01 17:20:22;;;;;;;43.00;24.35;;;;;;;2.09;81.82;101965.84;1781933;77;21307;31
2021/03/01 17:25:51;;;;;;;46.10;26.23;;;;;;;2.30;81.76;101970.61;1745547;80;21114;-46
2021/03/01 17:31:36;;;;;;;74.77;32.83;;;;;;;2.45;81.09;101956.33;1758198;77;21403;-46
2021/03/01 17:34:06;;;;;;;46.45;24.47;;;;;;;2.46;80.72;101959.35;1765194;80;21505;-46
2021/03/01 17:36:35;;;;;;;45.20;24.15;;;;;;;2.48;80.46;101957.56;1802119;76;21269;-46
2021/03/01 17:39:03;;;;;;;41.00;23.27;;;;;;;2.50;80.33;101961.47;1794974;78;21118;-46
2021/03/01 17:41:31;;;;;;;42.65;25.02;;;;;;;2.52;80.32;101967.52;1793040;78;21118;-46
2021/03/01 17:43:59;;;;;;;39.40;24.25;;;;;;;2.54;80.32;101961.81;1793643;79;21107;-46
2021/03/01 17:46:29;;;;;;;46.80;22.45;;;;;;;2.57;80.43;101961.74;1776935;75;21340;-46
2021/03/01 17:49:03;;;;;;;39.65;24.27;;;;;;;2.61;80.11;101965.13;1723861;82;21516;-46